TOM333 EGPH-EGGP
Flight info
| Callsign | TOM333 |
|---|---|
| Flight time | N/A |
| Altitude | 25000 |
| Route | GOSAM P600 FENIK L612 LAKEY |
| Aircraft | B738/M-SDE2E3FGHIRWXY/LB1 |
Departure
| Time | 2026-04-26 20:16 |
|---|---|
| Airport | Edinburgh Airport (EGPH) |
Arrival
| Time | N/A |
|---|---|
| Airport | Liverpool John Lennon Airport (EGGP) |
| Time | Latitude | Longitude | Altitude | Speed | Heading |
|---|---|---|---|---|---|
| 2026-04-26 19:33 | 55.94906 | -3.36495 | 104 ft | 0 kts | 147° |
| 2026-04-26 20:07 | 55.94908 | -3.36497 | 105 ft | 1 kts | 147° |
| 2026-04-26 20:07 | 55.94912 | -3.36502 | 105 ft | 0 kts | 147° |
| 2026-04-26 20:07 | 55.94914 | -3.36504 | 105 ft | 1 kts | 148° |
| 2026-04-26 20:07 | 55.94934 | -3.36522 | 104 ft | 4 kts | 167° |
| 2026-04-26 20:08 | 55.94965 | -3.36522 | 105 ft | 5 kts | 209° |
| 2026-04-26 20:08 | 55.94975 | -3.36511 | 105 ft | 0 kts | 237° |
| 2026-04-26 20:09 | 55.94974 | -3.36514 | 105 ft | 1 kts | 237° |
| 2026-04-26 20:10 | 55.94954 | -3.36574 | 105 ft | 10 kts | 239° |
| 2026-04-26 20:10 | 55.94910 | -3.36705 | 106 ft | 13 kts | 239° |
| 2026-04-26 20:10 | 55.94904 | -3.36803 | 105 ft | 8 kts | 308° |
| 2026-04-26 20:10 | 55.94919 | -3.36910 | 103 ft | 12 kts | 246° |
| 2026-04-26 20:11 | 55.94867 | -3.37067 | 104 ft | 19 kts | 239° |
| 2026-04-26 20:11 | 55.94787 | -3.37305 | 104 ft | 23 kts | 239° |
| 2026-04-26 20:11 | 55.94707 | -3.37544 | 110 ft | 22 kts | 239° |
| 2026-04-26 20:12 | 55.94551 | -3.37998 | 112 ft | 21 kts | 238° |
| 2026-04-26 20:12 | 55.94478 | -3.38217 | 110 ft | 20 kts | 240° |
| 2026-04-26 20:12 | 55.94410 | -3.38431 | 112 ft | 20 kts | 235° |
| 2026-04-26 20:12 | 55.94336 | -3.38632 | 115 ft | 19 kts | 239° |
| 2026-04-26 20:13 | 55.94281 | -3.38800 | 117 ft | 12 kts | 249° |
| 2026-04-26 20:13 | 55.94315 | -3.38896 | 118 ft | 0 kts | 328° |
| 2026-04-26 20:14 | 55.94318 | -3.38900 | 118 ft | 1 kts | 328° |
| 2026-04-26 20:14 | 55.94348 | -3.38932 | 118 ft | 11 kts | 329° |
| 2026-04-26 20:14 | 55.94414 | -3.38958 | 113 ft | 9 kts | 34° |
| 2026-04-26 20:14 | 55.94453 | -3.38857 | 115 ft | 13 kts | 58° |
| 2026-04-26 20:15 | 55.94540 | -3.38600 | 113 ft | 37 kts | 59° |
| 2026-04-26 20:15 | 55.94789 | -3.37868 | 116 ft | 102 kts | 59° |
| 2026-04-26 20:15 | 55.95271 | -3.36444 | 103 ft | 160 kts | 59° |
| 2026-04-26 20:15 | 55.95857 | -3.34650 | 547 ft | 171 kts | 54° |
| 2026-04-26 20:16 | 55.96728 | -3.33123 | 1128 ft | 180 kts | 39° |
| 2026-04-26 20:16 | 55.97705 | -3.31581 | 1698 ft | 195 kts | 39° |
| 2026-04-26 20:16 | 55.98776 | -3.29865 | 2016 ft | 220 kts | 39° |
| 2026-04-26 20:16 | 56.00060 | -3.28211 | 2252 ft | 235 kts | 16° |
| 2026-04-26 20:17 | 56.01707 | -3.28150 | 2493 ft | 248 kts | 336° |
| 2026-04-26 20:17 | 56.03029 | -3.30068 | 3126 ft | 249 kts | 298° |
| 2026-04-26 20:17 | 56.03419 | -3.33020 | 3885 ft | 249 kts | 263° |
| 2026-04-26 20:17 | 56.03158 | -3.35059 | 4422 ft | 250 kts | 254° |
| 2026-04-26 20:18 | 56.02515 | -3.39059 | 5418 ft | 255 kts | 255° |
| 2026-04-26 20:18 | 56.02042 | -3.42134 | 6204 ft | 258 kts | 255° |
| 2026-04-26 20:18 | 56.01575 | -3.45239 | 6970 ft | 260 kts | 255° |
| 2026-04-26 20:18 | 56.01118 | -3.48386 | 7707 ft | 262 kts | 256° |
| 2026-04-26 20:19 | 56.00664 | -3.51554 | 8452 ft | 265 kts | 256° |
| 2026-04-26 20:19 | 56.00207 | -3.54756 | 9208 ft | 267 kts | 256° |
| 2026-04-26 20:19 | 55.99747 | -3.57983 | 9939 ft | 270 kts | 256° |
| 2026-04-26 20:19 | 55.99279 | -3.61256 | 10559 ft | 276 kts | 256° |
| 2026-04-26 20:20 | 55.98784 | -3.64711 | 10742 ft | 298 kts | 256° |
| 2026-04-26 20:20 | 55.98250 | -3.68433 | 10909 ft | 319 kts | 256° |
| 2026-04-26 20:20 | 55.97682 | -3.72387 | 11069 ft | 339 kts | 256° |
| 2026-04-26 20:20 | 55.97080 | -3.76569 | 11277 ft | 355 kts | 256° |
| 2026-04-26 20:21 | 55.96457 | -3.80881 | 11754 ft | 362 kts | 256° |
| 2026-04-26 20:21 | 55.95826 | -3.85245 | 12400 ft | 364 kts | 256° |
| 2026-04-26 20:21 | 55.95190 | -3.89632 | 13062 ft | 367 kts | 256° |
| 2026-04-26 20:21 | 55.94543 | -3.94065 | 13717 ft | 370 kts | 256° |
| 2026-04-26 20:22 | 55.93813 | -3.98494 | 14332 ft | 375 kts | 248° |
| 2026-04-26 20:22 | 55.92475 | -4.02516 | 14934 ft | 380 kts | 233° |
| 2026-04-26 20:22 | 55.90644 | -4.05924 | 15606 ft | 385 kts | 222° |
| 2026-04-26 20:22 | 55.88455 | -4.08729 | 16253 ft | 389 kts | 217° |
| 2026-04-26 20:23 | 55.86184 | -4.11398 | 16854 ft | 392 kts | 216° |
| 2026-04-26 20:23 | 55.83928 | -4.14047 | 17439 ft | 396 kts | 217° |
| 2026-04-26 20:23 | 55.81636 | -4.16785 | 18031 ft | 398 kts | 217° |
| 2026-04-26 20:23 | 55.79331 | -4.19566 | 18619 ft | 401 kts | 218° |
| 2026-04-26 20:24 | 55.77026 | -4.22380 | 19140 ft | 403 kts | 218° |
| 2026-04-26 20:24 | 55.74639 | -4.25048 | 19666 ft | 410 kts | 208° |
| 2026-04-26 20:24 | 55.71849 | -4.26314 | 20182 ft | 423 kts | 188° |
| 2026-04-26 20:24 | 55.68886 | -4.25984 | 20698 ft | 433 kts | 172° |
| 2026-04-26 20:25 | 55.66022 | -4.24116 | 21159 ft | 445 kts | 156° |
| 2026-04-26 20:25 | 55.65100 | -4.23227 | 21327 ft | 447 kts | 155° |
| 2026-04-26 20:25 | 55.60588 | -4.18665 | 22057 ft | 453 kts | 154° |
| 2026-04-26 20:25 | 55.57845 | -4.15884 | 22494 ft | 456 kts | 154° |
| 2026-04-26 20:26 | 55.55074 | -4.13128 | 22947 ft | 458 kts | 155° |
| 2026-04-26 20:26 | 55.52280 | -4.10395 | 23391 ft | 460 kts | 155° |
| 2026-04-26 20:26 | 55.49468 | -4.07665 | 23812 ft | 463 kts | 155° |
| 2026-04-26 20:26 | 55.46633 | -4.04916 | 24168 ft | 465 kts | 155° |
| 2026-04-26 20:27 | 55.43793 | -4.02161 | 24550 ft | 466 kts | 155° |
| 2026-04-26 20:27 | 55.40959 | -3.99410 | 24974 ft | 466 kts | 155° |
| 2026-04-26 20:27 | 55.39077 | -3.97586 | 25205 ft | 467 kts | 155° |
| 2026-04-26 20:27 | 55.35234 | -3.93867 | 25254 ft | 476 kts | 155° |
| 2026-04-26 20:28 | 55.33305 | -3.92004 | 25278 ft | 478 kts | 155° |
| 2026-04-26 20:28 | 55.29459 | -3.88290 | 25264 ft | 475 kts | 155° |
| 2026-04-26 20:28 | 55.26571 | -3.85505 | 25275 ft | 473 kts | 155° |
| 2026-04-26 20:28 | 55.23687 | -3.82733 | 25274 ft | 472 kts | 155° |
| 2026-04-26 20:29 | 55.20810 | -3.79972 | 25274 ft | 472 kts | 155° |
| 2026-04-26 20:29 | 55.17933 | -3.77218 | 25262 ft | 471 kts | 154° |
| 2026-04-26 20:29 | 55.15061 | -3.74471 | 25271 ft | 471 kts | 154° |
| 2026-04-26 20:29 | 55.13156 | -3.72649 | 25269 ft | 471 kts | 154° |
| 2026-04-26 20:30 | 55.10288 | -3.69912 | 25269 ft | 471 kts | 154° |
| 2026-04-26 20:30 | 55.07410 | -3.67169 | 25270 ft | 471 kts | 154° |
| 2026-04-26 20:30 | 55.04535 | -3.64432 | 25273 ft | 471 kts | 154° |
| 2026-04-26 20:30 | 55.01653 | -3.61693 | 25277 ft | 471 kts | 154° |
| 2026-04-26 20:31 | 54.98768 | -3.58957 | 25275 ft | 472 kts | 154° |
| 2026-04-26 20:31 | 54.95886 | -3.56236 | 25275 ft | 472 kts | 155° |
| 2026-04-26 20:31 | 54.92992 | -3.53518 | 25263 ft | 472 kts | 154° |
| 2026-04-26 20:31 | 54.90106 | -3.50813 | 25268 ft | 472 kts | 154° |
| 2026-04-26 20:32 | 54.87212 | -3.48104 | 25274 ft | 472 kts | 154° |
| 2026-04-26 20:32 | 54.84324 | -3.45403 | 25282 ft | 472 kts | 154° |
| 2026-04-26 20:32 | 54.81467 | -3.42733 | 25281 ft | 472 kts | 154° |
| 2026-04-26 20:32 | 54.78580 | -3.40039 | 25284 ft | 472 kts | 154° |
| 2026-04-26 20:33 | 54.75688 | -3.37344 | 25285 ft | 472 kts | 154° |
| 2026-04-26 20:33 | 54.72797 | -3.34657 | 25285 ft | 472 kts | 154° |
| 2026-04-26 20:33 | 54.69862 | -3.32134 | 25274 ft | 471 kts | 158° |
| 2026-04-26 20:33 | 54.66867 | -3.29864 | 25279 ft | 470 kts | 159° |
| 2026-04-26 20:34 | 54.63851 | -3.27685 | 25288 ft | 470 kts | 160° |
| 2026-04-26 20:34 | 54.60831 | -3.25504 | 25291 ft | 470 kts | 159° |
| 2026-04-26 20:34 | 54.57827 | -3.23300 | 25293 ft | 470 kts | 159° |
| 2026-04-26 20:34 | 54.54817 | -3.21059 | 25282 ft | 471 kts | 159° |
| 2026-04-26 20:35 | 54.51815 | -3.18812 | 25286 ft | 471 kts | 159° |
| 2026-04-26 20:35 | 54.48808 | -3.16564 | 25284 ft | 471 kts | 159° |
| 2026-04-26 20:35 | 54.45796 | -3.14319 | 24913 ft | 473 kts | 159° |
| 2026-04-26 20:35 | 54.42794 | -3.12085 | 24360 ft | 466 kts | 158° |
| 2026-04-26 20:36 | 54.39837 | -3.09887 | 23760 ft | 460 kts | 158° |
| 2026-04-26 20:36 | 54.36915 | -3.07718 | 23061 ft | 456 kts | 158° |
| 2026-04-26 20:36 | 54.34022 | -3.05575 | 22406 ft | 451 kts | 158° |
| 2026-04-26 20:36 | 54.31163 | -3.03460 | 21781 ft | 445 kts | 158° |
| 2026-04-26 20:37 | 54.28366 | -3.01393 | 21184 ft | 441 kts | 158° |
| 2026-04-26 20:37 | 54.25570 | -2.99331 | 20595 ft | 436 kts | 158° |
| 2026-04-26 20:37 | 54.22799 | -2.97292 | 20135 ft | 429 kts | 158° |
| 2026-04-26 20:37 | 54.20089 | -2.95307 | 19875 ft | 420 kts | 158° |
| 2026-04-26 20:38 | 54.17366 | -2.93319 | 19650 ft | 432 kts | 158° |
| 2026-04-26 20:38 | 54.14579 | -2.91288 | 19388 ft | 436 kts | 157° |
| 2026-04-26 20:38 | 54.11795 | -2.89260 | 19116 ft | 434 kts | 157° |
| 2026-04-26 20:38 | 54.09027 | -2.87244 | 18848 ft | 432 kts | 157° |
| 2026-04-26 20:39 | 54.06268 | -2.85237 | 18588 ft | 430 kts | 157° |
| 2026-04-26 20:39 | 54.03524 | -2.83243 | 18292 ft | 429 kts | 157° |
| 2026-04-26 20:39 | 54.00784 | -2.81257 | 18012 ft | 427 kts | 157° |
| 2026-04-26 20:39 | 53.98051 | -2.79277 | 17740 ft | 425 kts | 157° |
| 2026-04-26 20:40 | 53.95333 | -2.77306 | 17473 ft | 423 kts | 157° |
| 2026-04-26 20:40 | 53.92623 | -2.75345 | 17161 ft | 424 kts | 157° |
| 2026-04-26 20:40 | 53.89919 | -2.73391 | 16803 ft | 421 kts | 157° |
| 2026-04-26 20:40 | 53.87236 | -2.71457 | 16417 ft | 417 kts | 157° |
| 2026-04-26 20:41 | 53.84574 | -2.69541 | 16035 ft | 413 kts | 157° |
| 2026-04-26 20:41 | 53.81937 | -2.67645 | 15660 ft | 410 kts | 157° |
| 2026-04-26 20:41 | 53.79318 | -2.65765 | 15289 ft | 407 kts | 158° |
| 2026-04-26 20:41 | 53.76716 | -2.63899 | 14923 ft | 405 kts | 158° |
| 2026-04-26 20:42 | 53.74134 | -2.62050 | 14563 ft | 402 kts | 158° |
| 2026-04-26 20:42 | 53.71597 | -2.60236 | 14210 ft | 400 kts | 158° |
| 2026-04-26 20:42 | 53.69047 | -2.58417 | 13826 ft | 397 kts | 158° |
| 2026-04-26 20:42 | 53.66393 | -2.57208 | 13378 ft | 395 kts | 177° |
| 2026-04-26 20:43 | 53.63694 | -2.57720 | 13005 ft | 390 kts | 197° |
| 2026-04-26 20:43 | 53.61259 | -2.59648 | 12626 ft | 386 kts | 214° |
| 2026-04-26 20:43 | 53.59256 | -2.62598 | 12232 ft | 381 kts | 231° |
| 2026-04-26 20:43 | 53.57746 | -2.66225 | 11872 ft | 376 kts | 237° |
| 2026-04-26 20:44 | 53.56327 | -2.69904 | 11497 ft | 374 kts | 237° |
| 2026-04-26 20:44 | 53.54912 | -2.73598 | 11313 ft | 375 kts | 237° |
| 2026-04-26 20:44 | 53.53494 | -2.77279 | 11283 ft | 374 kts | 237° |
| 2026-04-26 20:44 | 53.52081 | -2.80912 | 11274 ft | 367 kts | 237° |
| 2026-04-26 20:45 | 53.50708 | -2.84416 | 11247 ft | 350 kts | 237° |
| 2026-04-26 20:45 | 53.49415 | -2.87698 | 10979 ft | 332 kts | 237° |
| 2026-04-26 20:45 | 53.48170 | -2.90849 | 10720 ft | 317 kts | 237° |
| 2026-04-26 20:45 | 53.46978 | -2.93861 | 10464 ft | 303 kts | 237° |
| 2026-04-26 20:46 | 53.45836 | -2.96745 | 10217 ft | 291 kts | 237° |
| 2026-04-26 20:46 | 53.44737 | -2.99513 | 9943 ft | 280 kts | 236° |
| 2026-04-26 20:46 | 53.43677 | -3.02189 | 9677 ft | 271 kts | 237° |
| 2026-04-26 20:46 | 53.42653 | -3.04774 | 9395 ft | 262 kts | 237° |
| 2026-04-26 20:47 | 53.41664 | -3.07274 | 9173 ft | 250 kts | 237° |
| 2026-04-26 20:47 | 53.41036 | -3.08858 | 9002 ft | 243 kts | 237° |
| 2026-04-26 20:47 | 53.39794 | -3.11936 | 8639 ft | 235 kts | 231° |
| 2026-04-26 20:47 | 53.38495 | -3.13548 | 8358 ft | 236 kts | 200° |
| 2026-04-26 20:48 | 53.36856 | -3.13903 | 8143 ft | 241 kts | 182° |
| 2026-04-26 20:48 | 53.35162 | -3.13860 | 7904 ft | 244 kts | 180° |
| 2026-04-26 20:48 | 53.33471 | -3.13860 | 7666 ft | 242 kts | 181° |
| 2026-04-26 20:48 | 53.31791 | -3.13801 | 7425 ft | 241 kts | 180° |
| 2026-04-26 20:49 | 53.30115 | -3.13720 | 7125 ft | 242 kts | 180° |
| 2026-04-26 20:49 | 53.28438 | -3.13608 | 6683 ft | 245 kts | 174° |
| 2026-04-26 20:49 | 53.26857 | -3.12622 | 6192 ft | 245 kts | 144° |
| 2026-04-26 20:49 | 53.25812 | -3.10432 | 5735 ft | 243 kts | 112° |
| 2026-04-26 20:50 | 53.25534 | -3.07673 | 5302 ft | 241 kts | 92° |
| 2026-04-26 20:50 | 53.25543 | -3.04902 | 5033 ft | 239 kts | 90° |
| 2026-04-26 20:50 | 53.25581 | -3.02090 | 5023 ft | 243 kts | 90° |
| 2026-04-26 20:50 | 53.25623 | -2.99297 | 4972 ft | 239 kts | 90° |
| 2026-04-26 20:51 | 53.25665 | -2.96490 | 4581 ft | 245 kts | 89° |
| 2026-04-26 20:51 | 53.25704 | -2.93663 | 4282 ft | 240 kts | 90° |
| 2026-04-26 20:51 | 53.25740 | -2.90921 | 4083 ft | 234 kts | 90° |
| 2026-04-26 20:51 | 53.25775 | -2.88215 | 3899 ft | 231 kts | 90° |
| 2026-04-26 20:52 | 53.25808 | -2.85533 | 3725 ft | 231 kts | 90° |
| 2026-04-26 20:52 | 53.25838 | -2.82838 | 3522 ft | 232 kts | 90° |
| 2026-04-26 20:52 | 53.25867 | -2.80116 | 3256 ft | 237 kts | 90° |
| 2026-04-26 20:52 | 53.25892 | -2.77345 | 3002 ft | 239 kts | 90° |
| 2026-04-26 20:53 | 53.25914 | -2.74586 | 2758 ft | 236 kts | 90° |
| 2026-04-26 20:53 | 53.25931 | -2.71853 | 2552 ft | 235 kts | 90° |
| 2026-04-26 20:53 | 53.25945 | -2.69135 | 2510 ft | 234 kts | 90° |
| 2026-04-26 20:53 | 53.25956 | -2.66422 | 2495 ft | 232 kts | 90° |
| 2026-04-26 20:54 | 53.25963 | -2.63725 | 2488 ft | 232 kts | 90° |
| 2026-04-26 20:54 | 53.26039 | -2.61051 | 2471 ft | 232 kts | 76° |
| 2026-04-26 20:54 | 53.26796 | -2.58717 | 2503 ft | 231 kts | 43° |
| 2026-04-26 20:54 | 53.28153 | -2.57462 | 2480 ft | 218 kts | 9° |
| 2026-04-26 20:55 | 53.29597 | -2.57248 | 2487 ft | 199 kts | 1° |
| 2026-04-26 20:55 | 53.30489 | -2.57198 | 2478 ft | 189 kts | 0° |